createdAt,value
2019-02-23T00:04:06.010Z,140.47
2019-02-23T00:09:08.137Z,136.40
2019-02-23T00:14:10.382Z,134.97
2019-02-23T00:19:12.410Z,141.90
2019-02-23T00:24:17.624Z,151.57
2019-02-23T00:29:19.678Z,139.67
2019-02-23T00:34:25.569Z,136.20
2019-02-23T00:39:27.640Z,153.77
2019-02-23T00:44:32.197Z,141.20
2019-02-23T00:49:36.507Z,147.43
2019-02-23T00:54:40.846Z,143.67
2019-02-23T00:59:43.153Z,147.80
2019-02-23T01:04:45.214Z,153.60
2019-02-23T01:09:47.244Z,183.63
2019-02-23T01:14:51.825Z,144.57
2019-02-23T01:19:55.636Z,143.07
2019-02-23T01:24:59.315Z,160.80
2019-02-23T01:30:02.771Z,144.77
2019-02-23T01:35:04.999Z,150.17
2019-02-23T01:40:11.762Z,136.43
2019-02-23T01:45:14.301Z,144.07
2019-02-23T01:50:16.363Z,123.13
2019-02-23T01:55:22.956Z,137.13
2019-02-23T02:00:25.437Z,120.70
2019-02-23T02:05:30.428Z,140.33
2019-02-23T02:10:34.025Z,128.70
2019-02-23T02:15:38.782Z,138.87
2019-02-23T02:20:40.949Z,131.50
2019-02-23T02:25:43.047Z,124.70
2019-02-23T02:30:48.274Z,119.20
2019-02-23T02:35:57.392Z,125.87
2019-02-23T02:40:59.675Z,126.77
2019-02-23T02:46:01.699Z,122.90
2019-02-23T02:51:03.760Z,115.87
2019-02-23T02:56:05.857Z,122.57
2019-02-23T03:01:08.243Z,132.27
2019-02-23T03:06:10.300Z,127.53
2019-02-23T03:11:12.510Z,135.10
2019-02-23T03:16:14.587Z,147.47
2019-02-23T03:21:19.795Z,152.90
2019-02-23T03:26:21.899Z,151.23
2019-02-23T03:31:27.623Z,134.27
2019-02-23T03:36:29.640Z,121.57
2019-02-23T03:41:32.896Z,122.77
2019-02-23T03:46:36.558Z,124.30
2019-02-23T03:51:41.294Z,137.33
2019-02-23T03:56:44.742Z,106.67
2019-02-23T04:01:54.880Z,101.53
2019-02-23T04:06:58.272Z,124.17
2019-02-23T04:12:00.437Z,112.73
2019-02-23T04:17:02.576Z,93.37
2019-02-23T04:22:04.831Z,98.87
2019-02-23T04:27:06.874Z,102.57
2019-02-23T04:32:09.422Z,104.77
2019-02-23T04:37:11.442Z,95.30
2019-02-23T04:42:13.486Z,93.23
2019-02-23T04:47:15.504Z,74.80
2019-02-23T04:52:17.608Z,87.10
2019-02-23T04:57:19.696Z,99.53
2019-02-23T05:02:21.887Z,90.57
2019-02-23T05:07:27.631Z,99.90
2019-02-23T05:12:29.853Z,92.67
2019-02-23T05:17:31.893Z,93.23
2019-02-23T05:22:33.981Z,78.43
2019-02-23T05:27:36.100Z,98.80
2019-02-23T05:32:38.277Z,97.23
2019-02-23T05:37:40.385Z,90.37
2019-02-23T05:42:47.662Z,97.17
2019-02-23T05:47:49.690Z,99.93
2019-02-23T05:52:51.769Z,98.90
2019-02-23T05:57:53.784Z,99.67
2019-02-23T06:02:57.331Z,92.63
2019-02-23T06:07:59.675Z,92.07
2019-02-23T06:13:02.893Z,93.73
2019-02-23T06:18:12.471Z,96.13
2019-02-23T06:23:17.611Z,96.00
2019-02-23T06:28:22.226Z,101.30
2019-02-23T06:33:27.044Z,105.27
2019-02-23T06:38:29.084Z,97.73
2019-02-23T06:43:32.814Z,97.17
2019-02-23T06:48:34.945Z,95.17
2019-02-23T06:53:41.654Z,90.83
2019-02-23T06:58:45.391Z,96.90
2019-02-23T07:03:47.472Z,98.47
2019-02-23T07:08:49.558Z,95.30
2019-02-23T07:13:51.694Z,89.97
2019-02-23T07:18:53.736Z,85.93
2019-02-23T07:24:00.590Z,82.57
2019-02-23T07:29:04.391Z,84.00
2019-02-23T07:34:11.640Z,69.63
2019-02-23T07:39:13.940Z,71.30
2019-02-23T07:44:16.188Z,75.30
2019-02-23T07:49:18.217Z,70.37
2019-02-23T07:54:22.647Z,63.53
2019-02-23T07:59:24.751Z,59.73
2019-02-23T08:04:26.915Z,62.67
2019-02-23T08:09:31.556Z,57.73
2019-02-23T08:14:33.534Z,59.43
2019-02-23T08:19:35.572Z,67.13
2019-02-23T08:24:37.910Z,64.70
2019-02-23T08:29:39.907Z,57.40
2019-02-23T08:34:42.167Z,51.80
2019-02-23T08:39:44.309Z,51.13
2019-02-23T08:44:46.322Z,48.60
2019-02-23T08:49:50.210Z,51.90
2019-02-23T08:54:52.250Z,53.07
2019-02-23T08:59:54.325Z,51.23
2019-02-23T09:04:56.473Z,55.07
2019-02-23T09:09:58.509Z,61.00
2019-02-23T09:15:03.819Z,49.30
2019-02-23T09:20:06.033Z,47.13
2019-02-23T09:25:12.675Z,50.63
2019-02-23T09:30:23.045Z,50.43
2019-02-23T09:35:25.104Z,50.23
2019-02-23T09:40:32.049Z,48.83
2019-02-23T09:45:34.091Z,48.93
2019-02-23T09:50:36.521Z,52.23
2019-02-23T09:55:40.439Z,45.87
2019-02-23T10:00:44.341Z,45.13
2019-02-23T10:05:46.358Z,51.70
2019-02-23T10:10:48.518Z,51.73
2019-02-23T10:15:52.079Z,44.40
2019-02-23T10:20:59.025Z,44.33
2019-02-23T10:26:02.298Z,47.73
2019-02-23T10:31:05.534Z,47.77
2019-02-23T10:36:07.579Z,45.10
2019-02-23T10:41:09.657Z,42.27
2019-02-23T10:46:12.248Z,46.07
2019-02-23T10:51:17.666Z,38.57
2019-02-23T10:56:19.797Z,40.40
2019-02-23T11:01:22.032Z,39.33
2019-02-23T11:06:24.066Z,39.80
2019-02-23T11:11:26.255Z,42.30
2019-02-23T11:16:28.266Z,41.97
2019-02-23T11:21:31.750Z,40.87
2019-02-23T11:26:34.288Z,41.13
2019-02-23T11:31:36.796Z,43.13
2019-02-23T11:36:38.807Z,43.53
2019-02-23T11:41:40.862Z,39.00
2019-02-23T11:46:59.204Z,47.00
2019-02-23T11:51:49.578Z,41.03
2019-02-23T11:56:51.707Z,37.40
2019-02-23T12:01:55.133Z,37.40
2019-02-23T12:06:57.209Z,41.50
2019-02-23T12:11:59.548Z,39.30
2019-02-23T12:17:01.540Z,42.33
2019-02-23T12:22:12.063Z,36.80
2019-02-23T12:27:08.063Z,37.20
2019-02-23T12:32:15.875Z,36.20
2019-02-23T12:37:19.684Z,40.77
2019-02-23T12:42:21.695Z,37.63
2019-02-23T12:47:23.699Z,30.47
2019-02-23T12:52:28.731Z,35.53
2019-02-23T12:57:30.792Z,32.30
2019-02-23T13:02:33.006Z,34.37
2019-02-23T13:07:39.065Z,33.43
2019-02-23T13:13:03.115Z,32.47
2019-02-23T13:18:36.769Z,33.90
2019-02-23T13:24:04.433Z,35.50
2019-02-23T13:29:52.092Z,36.00
2019-02-23T13:35:40.986Z,34.60
2019-02-23T13:41:11.630Z,37.07
2019-02-23T13:46:48.320Z,36.27
2019-02-23T13:52:18.612Z,35.63
2019-02-23T13:58:01.892Z,36.50
2019-02-23T14:03:44.551Z,31.80
2019-02-23T14:09:33.671Z,34.07
2019-02-23T14:15:03.366Z,35.00
2019-02-23T14:20:48.253Z,42.00
2019-02-23T14:26:41.176Z,33.37
2019-02-23T14:32:04.743Z,30.50
2019-02-23T14:37:38.320Z,39.87
2019-02-23T14:43:25.180Z,29.43
2019-02-23T14:49:07.425Z,32.00
2019-02-23T14:55:00.722Z,30.27
2019-02-23T15:00:50.895Z,31.90
2019-02-23T15:06:24.247Z,32.90
2019-02-23T15:11:47.323Z,34.77
2019-02-23T15:17:31.960Z,30.97
2019-02-23T15:23:00.235Z,29.07
2019-02-23T15:28:37.608Z,30.07
2019-02-23T15:34:22.490Z,32.53
2019-02-23T15:39:54.505Z,32.83
2019-02-23T15:45:57.160Z,38.93
2019-02-23T15:51:02.339Z,29.83
2019-02-23T15:56:12.708Z,28.37
2019-02-23T16:01:15.054Z,31.93
2019-02-23T16:06:18.355Z,29.37
2019-02-23T16:11:21.592Z,30.27
2019-02-23T16:16:23.652Z,26.93
2019-02-23T16:21:25.744Z,33.03
2019-02-23T16:26:27.754Z,32.93
2019-02-23T16:31:32.637Z,28.93
2019-02-23T16:36:34.652Z,30.87
2019-02-23T16:41:40.449Z,31.63
2019-02-23T16:46:46.463Z,32.73
2019-02-23T16:51:51.722Z,28.47
2019-02-23T16:56:53.779Z,30.37
2019-02-23T17:01:57.395Z,30.50
2019-02-23T17:06:59.652Z,28.53
2019-02-23T17:12:02.024Z,31.63
2019-02-23T17:17:04.058Z,30.50
2019-02-23T17:22:06.059Z,28.17
2019-02-23T17:27:10.125Z,26.60
2019-02-23T17:32:16.331Z,25.90
2019-02-23T17:37:20.288Z,26.52
2019-02-23T17:42:28.094Z,30.03
2019-02-23T17:47:26.294Z,29.17
2019-02-23T17:52:29.193Z,27.77
2019-02-23T17:57:34.150Z,30.75
2019-02-23T18:02:38.224Z,28.70
2019-02-23T18:07:40.813Z,28.40
2019-02-23T18:12:43.326Z,31.07
2019-02-23T18:17:45.380Z,33.07
2019-02-23T18:22:48.516Z,26.87
2019-02-23T18:27:53.669Z,25.77
2019-02-23T18:32:55.753Z,31.60
2019-02-23T18:38:02.825Z,30.87
2019-02-23T18:43:07.504Z,28.33
2019-02-23T18:48:12.588Z,31.23
2019-02-23T18:53:19.909Z,28.03
2019-02-23T18:58:23.273Z,30.80
2019-02-23T19:03:25.510Z,34.07
2019-02-23T19:08:28.921Z,30.50
2019-02-23T19:13:31.233Z,30.77
2019-02-23T19:18:33.354Z,31.17
2019-02-23T19:23:35.644Z,29.20
2019-02-23T19:28:43.168Z,31.43
2019-02-23T19:33:47.739Z,30.83
2019-02-23T19:38:52.676Z,36.33
2019-02-23T19:43:57.162Z,33.43
2019-02-23T19:48:59.303Z,31.30
2019-02-23T19:54:02.754Z,32.17
2019-02-23T19:59:08.085Z,32.30
2019-02-23T20:04:11.493Z,36.60
2019-02-23T20:09:13.544Z,39.17
2019-02-23T20:14:15.700Z,37.63
2019-02-23T20:19:19.650Z,31.77
2019-02-23T20:24:21.902Z,36.77
2019-02-23T20:29:26.123Z,33.37
2019-02-23T20:34:32.933Z,34.93
2019-02-23T20:39:34.986Z,41.47
2019-02-23T20:44:38.226Z,36.03
2019-02-23T20:49:40.327Z,37.80
2019-02-23T20:54:43.851Z,35.27
2019-02-23T20:59:48.831Z,31.23
2019-02-23T21:04:52.807Z,35.60
2019-02-23T21:09:55.063Z,34.57
2019-02-23T21:15:00.924Z,38.10
2019-02-23T21:20:03.150Z,32.77
2019-02-23T21:25:07.978Z,29.50
2019-02-23T21:30:10.522Z,27.23
2019-02-23T21:35:15.170Z,36.87
2019-02-23T21:40:19.956Z,27.37
2019-02-23T21:45:34.766Z,30.17
2019-02-23T21:50:32.530Z,27.67
2019-02-23T21:55:37.432Z,31.03
2019-02-23T22:00:42.482Z,28.20
2019-02-23T22:05:46.725Z,29.97
2019-02-23T22:10:48.797Z,29.30
2019-02-23T22:15:53.245Z,28.03
2019-02-23T22:20:55.546Z,28.73
2019-02-23T22:25:57.565Z,27.47
2019-02-23T22:31:01.858Z,28.60
2019-02-23T22:36:08.777Z,25.50
2019-02-23T22:41:14.199Z,28.60
2019-02-23T22:46:18.770Z,29.17
2019-02-23T22:51:21.087Z,31.47
2019-02-23T22:56:26.213Z,30.37
2019-02-23T23:01:28.521Z,28.53
2019-02-23T23:06:33.306Z,28.13
2019-02-23T23:11:39.929Z,30.17
2019-02-23T23:16:42.172Z,26.73
2019-02-23T23:21:48.124Z,30.60
2019-02-23T23:26:52.076Z,27.40
2019-02-23T23:31:56.134Z,29.07
2019-02-23T23:37:00.879Z,32.30
2019-02-23T23:42:03.187Z,29.17
2019-02-23T23:47:05.276Z,28.47
2019-02-23T23:52:08.436Z,33.97
2019-02-23T23:57:10.486Z,26.70
